Sarasota Bradenton International Airport
KSRQ : now visible

Airfield :











YOU CAN JOIN US ON...

 
LOGIN :

Register | Disclaimer

   EN    FR    IT 

 









Legend :    VFR   Marginal VFR   IFR   Intensive IFR   Very Intensive IFR
Visi :
Ceiling :
>= 8 km
>= 3000ft
5 to 8 km
1000 to 3000 ft
1500m to 5 km
500 to 1000 ft
800 to 1500m
200 to 500 ft
< 800m
< 200 ft
Symbols :   Thunderstorms  Fog  Heavy snow  Heavy precipitations  Wind > 20 kt






- Airport Elevation : 30 ft
- IATA code : SRQ


KSRQ - Sarasota Bradenton International

CURRENT METAR :
  • 212253Z 23010KT 10SM CLR 26/21 A2993 RMK AO2 SLP135 T02560206

EXPIRED METARs :
  • 212153Z 21008KT 10SM CLR 26/21 A2993 RMK AO2 SLP134 T02610206
  • 212053Z 23008KT 10SM CLR 27/21 A2995 RMK AO2 SLP142 T02670206 56027
  • 211953Z 26009KT 10SM CLR 27/20 A2998 RMK AO2 SLP150 T02720200
  • 211853Z 26011G18KT 10SM CLR 27/20 A3001 RMK AO2 SLP160 T02670200

TAF KSRQ
Valid from the 21 at 18:00 until the 22 at 18:00 UTC


211721Z 2118/2218 25012KT P6SM SCT025 BKN250
FM220100 28007KT P6SM VCSH SCT025 BKN250
FM220500 29008KT P6SM VCSH SCT015 BKN025 BKN250
FM221000 34010KT P6SM SCT015 BKN025 BKN250
FM221600 33010KT P6SM SCT025 SCT250
KZMA FIR / North America



MET'MAP, your aeronautical weather chart ! - Copyright ORBIFLY December 2007 - Disclaimer

ORBIFLY MET'MAP TEAM :

Programming & Development : Alexandra Zaïnal
Original concept : Baudouin d'Aumeries
Technical & hardware support : Manuel Goepfert
Assistance : Marc-Olivier Méhu




SOURCES & CREDITS :

   NOAA       Earth
Advisory